Huvudsida
METAR-TAF:

METAR-TAF

Flygplatser :

Uleåborgs flygplats

Uleåborg, Finland

latitud: 64-56N, longitud: 025-22E, höjd: 12 m

Aktuellt väderrapport

Denna rapport gjordes för 18 minuter sedan, klockan 20:20 UTC
Vind 3 kt från nordväst
Temperatur -19°C
Fuktighet 84%
Tryck 1013 hPa
Sikt 10 km eller mer
Inga moln under 1 500 m eller inga cumulonimbus

METAR: EFOU 262020Z AUTO 31003KT CAVOK M19/M21 Q1013

Tid: 22:38 (20:38 UTC)

Väderprognos

Denna rapport gjordes för 3 timmar och 5 minuter sedan, klockan 17:33 UTC
Prognos gäller från 26 kl. 18 UTC till 27 kl. 18 UTC
Vind 6 kt från nordost
Sikt 10 km eller mer
Inga moln under 1 500 m eller inga cumulonimbus
Blir
från 27 kl. 09 UTC till 27 kl. 10 UTC
Sikt: 7000 m
lätt snö
Temporärt
från 27 kl. 10 UTC till 27 kl. 18 UTC
Sikt: 4000 m

TAF: EFOU 261733Z 2618/2718 05006KT CAVOK BECMG 2709/2710 7000 -SN TEMPO 2710/2718 4000

Aktuella väderrapporter och prognoser från 4000 flygplatser (METAR- och TAF-rapporter).

De tillgängliga stationerna syns som gula och röda prickar på kartan.

För musen över prickarna för att se namnen på stationerna.

Klicka sedan för att få väderrapporter och prognoser.

För att ändra kartan: Klicka på de gröna knapparna med ett svart kors på för att zooma in; den gröna knappen med ett streck på för att zooma ut; eller på de gröna pilarna för angränsande kartor.


METAR-TAF: